sensor_id;sensor_type;location;lat;lon;timestamp;temperature;humidity
10889;DHT22;5497;51.388;6.780;2022-08-01T00:02:15;19.60;99.90
10889;DHT22;5497;51.388;6.780;2022-08-01T00:04:44;19.60;99.90
10889;DHT22;5497;51.388;6.780;2022-08-01T00:09:49;20.10;99.90
10889;DHT22;5497;51.388;6.780;2022-08-01T00:12:16;20.50;99.90
10889;DHT22;5497;51.388;6.780;2022-08-01T00:14:42;19.60;99.90
10889;DHT22;5497;51.388;6.780;2022-08-01T00:17:09;19.60;99.90
10889;DHT22;5497;51.388;6.780;2022-08-01T00:19:36;19.60;99.90
10889;DHT22;5497;51.388;6.780;2022-08-01T00:22:04;19.60;99.90
10889;DHT22;5497;51.388;6.780;2022-08-01T00:24:31;19.60;99.90
10889;DHT22;5497;51.388;6.780;2022-08-01T00:26:57;19.60;99.90
10889;DHT22;5497;51.388;6.780;2022-08-01T00:29:24;19.50;99.90
10889;DHT22;5497;51.388;6.780;2022-08-01T00:31:51;19.60;99.90
10889;DHT22;5497;51.388;6.780;2022-08-01T00:34:18;19.60;99.90
10889;DHT22;5497;51.388;6.780;2022-08-01T00:36:45;19.50;99.90
10889;DHT22;5497;51.388;6.780;2022-08-01T00:39:14;19.60;99.90
10889;DHT22;5497;51.388;6.780;2022-08-01T00:41:44;19.50;99.90
10889;DHT22;5497;51.388;6.780;2022-08-01T00:44:18;19.50;99.90
10889;DHT22;5497;51.388;6.780;2022-08-01T00:47:04;19.50;99.90
10889;DHT22;5497;51.388;6.780;2022-08-01T00:49:35;19.50;99.90
10889;DHT22;5497;51.388;6.780;2022-08-01T00:52:11;19.50;99.90
10889;DHT22;5497;51.388;6.780;2022-08-01T00:54:57;19.50;99.90
10889;DHT22;5497;51.388;6.780;2022-08-01T00:57:54;19.50;99.90
10889;DHT22;5497;51.388;6.780;2022-08-01T01:00:27;19.50;99.90
10889;DHT22;5497;51.388;6.780;2022-08-01T01:02:59;19.50;99.90
10889;DHT22;5497;51.388;6.780;2022-08-01T01:05:44;19.50;99.90
10889;DHT22;5497;51.388;6.780;2022-08-01T01:08:29;19.40;99.90
10889;DHT22;5497;51.388;6.780;2022-08-01T01:11:13;19.40;99.90
10889;DHT22;5497;51.388;6.780;2022-08-01T01:13:52;19.40;99.90
10889;DHT22;5497;51.388;6.780;2022-08-01T01:16:42;19.40;99.90
10889;DHT22;5497;51.388;6.780;2022-08-01T01:19:20;19.40;99.90
10889;DHT22;5497;51.388;6.780;2022-08-01T01:22:06;19.40;99.90
10889;DHT22;5497;51.388;6.780;2022-08-01T01:24:43;19.40;99.90
10889;DHT22;5497;51.388;6.780;2022-08-01T01:27:21;19.40;99.90
10889;DHT22;5497;51.388;6.780;2022-08-01T01:30:03;19.50;99.90
10889;DHT22;5497;51.388;6.780;2022-08-01T01:32:41;19.40;99.90
10889;DHT22;5497;51.388;6.780;2022-08-01T01:35:27;19.40;99.90
10889;DHT22;5497;51.388;6.780;2022-08-01T01:38:09;19.30;99.90
10889;DHT22;5497;51.388;6.780;2022-08-01T01:40:43;19.30;99.90
10889;DHT22;5497;51.388;6.780;2022-08-01T01:43:21;19.30;99.90
10889;DHT22;5497;51.388;6.780;2022-08-01T01:45:51;19.30;99.90
10889;DHT22;5497;51.388;6.780;2022-08-01T01:48:21;19.30;99.90
10889;DHT22;5497;51.388;6.780;2022-08-01T01:51:03;19.30;99.90
10889;DHT22;5497;51.388;6.780;2022-08-01T01:53:35;19.30;99.90
10889;DHT22;5497;51.388;6.780;2022-08-01T01:56:04;19.30;99.90
10889;DHT22;5497;51.388;6.780;2022-08-01T01:58:34;19.40;99.90
10889;DHT22;5497;51.388;6.780;2022-08-01T02:01:10;19.30;99.90
10889;DHT22;5497;51.388;6.780;2022-08-01T02:03:48;19.40;99.90
10889;DHT22;5497;51.388;6.780;2022-08-01T02:06:21;19.40;99.90
10889;DHT22;5497;51.388;6.780;2022-08-01T02:08:54;19.40;99.90
10889;DHT22;5497;51.388;6.780;2022-08-01T02:11:34;19.40;99.90
10889;DHT22;5497;51.388;6.780;2022-08-01T02:14:05;19.40;99.90
10889;DHT22;5497;51.388;6.780;2022-08-01T02:16:56;19.40;99.90
10889;DHT22;5497;51.388;6.780;2022-08-01T02:19:51;19.40;99.90
10889;DHT22;5497;51.388;6.780;2022-08-01T02:22:29;19.40;99.90
10889;DHT22;5497;51.388;6.780;2022-08-01T02:25:06;19.40;99.90
10889;DHT22;5497;51.388;6.780;2022-08-01T02:27:46;19.40;99.90
10889;DHT22;5497;51.388;6.780;2022-08-01T02:30:24;19.40;99.90
10889;DHT22;5497;51.388;6.780;2022-08-01T02:33:07;19.40;99.90
10889;DHT22;5497;51.388;6.780;2022-08-01T02:35:44;19.40;99.90
10889;DHT22;5497;51.388;6.780;2022-08-01T02:38:26;19.40;99.90
10889;DHT22;5497;51.388;6.780;2022-08-01T02:41:00;19.40;99.90
10889;DHT22;5497;51.388;6.780;2022-08-01T02:43:34;19.40;99.90
10889;DHT22;5497;51.388;6.780;2022-08-01T02:46:11;19.40;99.90
10889;DHT22;5497;51.388;6.780;2022-08-01T02:48:55;19.40;99.90
10889;DHT22;5497;51.388;6.780;2022-08-01T02:51:23;19.40;99.90
10889;DHT22;5497;51.388;6.780;2022-08-01T02:53:55;19.40;99.90
10889;DHT22;5497;51.388;6.780;2022-08-01T02:56:35;19.40;99.90
10889;DHT22;5497;51.388;6.780;2022-08-01T02:59:07;19.40;99.90
10889;DHT22;5497;51.388;6.780;2022-08-01T03:01:37;19.40;99.90
10889;DHT22;5497;51.388;6.780;2022-08-01T03:04:11;20.60;99.90
10889;DHT22;5497;51.388;6.780;2022-08-01T03:06:49;19.40;99.90
10889;DHT22;5497;51.388;6.780;2022-08-01T03:09:30;19.40;99.90
10889;DHT22;5497;51.388;6.780;2022-08-01T03:12:11;19.40;99.90
10889;DHT22;5497;51.388;6.780;2022-08-01T03:14:56;19.40;99.90
10889;DHT22;5497;51.388;6.780;2022-08-01T03:17:29;19.40;99.90
10889;DHT22;5497;51.388;6.780;2022-08-01T03:20:09;19.40;99.90
10889;DHT22;5497;51.388;6.780;2022-08-01T03:22:53;19.40;99.90
10889;DHT22;5497;51.388;6.780;2022-08-01T03:25:22;19.40;99.90
10889;DHT22;5497;51.388;6.780;2022-08-01T03:27:51;19.40;99.90
10889;DHT22;5497;51.388;6.780;2022-08-01T03:30:21;19.40;99.90
10889;DHT22;5497;51.388;6.780;2022-08-01T03:32:48;19.40;99.90
10889;DHT22;5497;51.388;6.780;2022-08-01T03:35:17;19.40;99.90
10889;DHT22;5497;51.388;6.780;2022-08-01T03:37:45;19.40;99.90
10889;DHT22;5497;51.388;6.780;2022-08-01T03:40:13;19.40;99.90
10889;DHT22;5497;51.388;6.780;2022-08-01T03:42:41;19.40;99.90
10889;DHT22;5497;51.388;6.780;2022-08-01T03:45:10;19.40;99.90
10889;DHT22;5497;51.388;6.780;2022-08-01T03:47:38;19.40;99.90
10889;DHT22;5497;51.388;6.780;2022-08-01T03:50:09;19.40;99.90
10889;DHT22;5497;51.388;6.780;2022-08-01T03:52:39;19.40;99.90
10889;DHT22;5497;51.388;6.780;2022-08-01T03:55:07;19.40;99.90
10889;DHT22;5497;51.388;6.780;2022-08-01T03:57:34;19.40;99.90
10889;DHT22;5497;51.388;6.780;2022-08-01T04:00:01;19.40;99.90
10889;DHT22;5497;51.388;6.780;2022-08-01T04:02:38;19.30;99.90
10889;DHT22;5497;51.388;6.780;2022-08-01T04:05:05;19.30;99.90
10889;DHT22;5497;51.388;6.780;2022-08-01T04:07:33;19.30;99.90
10889;DHT22;5497;51.388;6.780;2022-08-01T04:10:03;19.30;99.90
10889;DHT22;5497;51.388;6.780;2022-08-01T04:15:03;19.30;99.90
10889;DHT22;5497;51.388;6.780;2022-08-01T04:17:30;19.30;99.90
10889;DHT22;5497;51.388;6.780;2022-08-01T04:19:57;19.30;99.90
10889;DHT22;5497;51.388;6.780;2022-08-01T04:22:26;19.30;99.90
10889;DHT22;5497;51.388;6.780;2022-08-01T04:24:53;19.40;99.90
10889;DHT22;5497;51.388;6.780;2022-08-01T04:27:25;19.40;99.90
10889;DHT22;5497;51.388;6.780;2022-08-01T04:29:58;19.40;99.90
10889;DHT22;5497;51.388;6.780;2022-08-01T04:32:31;19.40;99.90
10889;DHT22;5497;51.388;6.780;2022-08-01T04:35:04;19.40;99.90
10889;DHT22;5497;51.388;6.780;2022-08-01T04:37:32;19.50;99.90
10889;DHT22;5497;51.388;6.780;2022-08-01T04:40:03;19.40;99.90
10889;DHT22;5497;51.388;6.780;2022-08-01T04:42:33;19.50;99.90
10889;DHT22;5497;51.388;6.780;2022-08-01T04:45:00;19.50;99.90
10889;DHT22;5497;51.388;6.780;2022-08-01T04:47:27;19.50;99.90
10889;DHT22;5497;51.388;6.780;2022-08-01T04:49:55;19.50;99.90
10889;DHT22;5497;51.388;6.780;2022-08-01T04:52:23;19.60;99.90
10889;DHT22;5497;51.388;6.780;2022-08-01T04:54:50;19.60;99.90
10889;DHT22;5497;51.388;6.780;2022-08-01T04:57:17;19.60;99.90
10889;DHT22;5497;51.388;6.780;2022-08-01T04:59:45;19.60;99.90
10889;DHT22;5497;51.388;6.780;2022-08-01T05:02:15;19.60;99.90
10889;DHT22;5497;51.388;6.780;2022-08-01T05:04:43;19.60;99.90
10889;DHT22;5497;51.388;6.780;2022-08-01T05:07:11;19.60;99.90
10889;DHT22;5497;51.388;6.780;2022-08-01T05:09:38;19.70;99.90
10889;DHT22;5497;51.388;6.780;2022-08-01T05:12:07;19.70;99.90
10889;DHT22;5497;51.388;6.780;2022-08-01T05:14:34;19.70;99.90
10889;DHT22;5497;51.388;6.780;2022-08-01T05:17:04;19.70;99.90
10889;DHT22;5497;51.388;6.780;2022-08-01T05:19:32;19.70;99.90
10889;DHT22;5497;51.388;6.780;2022-08-01T05:21:59;19.70;99.90
10889;DHT22;5497;51.388;6.780;2022-08-01T05:24:27;19.80;99.90
10889;DHT22;5497;51.388;6.780;2022-08-01T05:26:54;19.90;99.90
10889;DHT22;5497;51.388;6.780;2022-08-01T05:29:21;19.90;99.90
10889;DHT22;5497;51.388;6.780;2022-08-01T05:31:48;19.90;99.90
10889;DHT22;5497;51.388;6.780;2022-08-01T05:34:16;19.90;99.90
10889;DHT22;5497;51.388;6.780;2022-08-01T05:36:43;19.90;99.90
10889;DHT22;5497;51.388;6.780;2022-08-01T05:39:10;20.00;99.90
10889;DHT22;5497;51.388;6.780;2022-08-01T05:41:37;20.00;99.90
10889;DHT22;5497;51.388;6.780;2022-08-01T05:44:04;20.10;99.90
10889;DHT22;5497;51.388;6.780;2022-08-01T05:46:30;20.20;99.90
10889;DHT22;5497;51.388;6.780;2022-08-01T05:48:57;20.30;99.90
10889;DHT22;5497;51.388;6.780;2022-08-01T05:51:25;20.50;99.90
10889;DHT22;5497;51.388;6.780;2022-08-01T05:53:52;20.60;99.90
10889;DHT22;5497;51.388;6.780;2022-08-01T05:56:19;20.70;99.90
10889;DHT22;5497;51.388;6.780;2022-08-01T05:58:46;20.90;99.90
10889;DHT22;5497;51.388;6.780;2022-08-01T06:01:13;21.10;99.90
10889;DHT22;5497;51.388;6.780;2022-08-01T06:03:40;21.40;99.90
10889;DHT22;5497;51.388;6.780;2022-08-01T06:06:06;21.70;99.90
10889;DHT22;5497;51.388;6.780;2022-08-01T06:08:34;21.80;99.90
10889;DHT22;5497;51.388;6.780;2022-08-01T06:11:01;21.70;99.90
10889;DHT22;5497;51.388;6.780;2022-08-01T06:13:28;21.70;99.90
10889;DHT22;5497;51.388;6.780;2022-08-01T06:15:55;21.70;99.90
10889;DHT22;5497;51.388;6.780;2022-08-01T06:18:21;21.70;99.90
10889;DHT22;5497;51.388;6.780;2022-08-01T06:20:48;21.70;99.90
10889;DHT22;5497;51.388;6.780;2022-08-01T06:23:15;21.80;99.90
10889;DHT22;5497;51.388;6.780;2022-08-01T06:25:43;22.70;99.90
10889;DHT22;5497;51.388;6.780;2022-08-01T06:28:10;22.10;99.90
10889;DHT22;5497;51.388;6.780;2022-08-01T06:30:37;22.20;99.90
10889;DHT22;5497;51.388;6.780;2022-08-01T06:33:03;22.40;99.90
10889;DHT22;5497;51.388;6.780;2022-08-01T06:35:30;22.60;99.90
10889;DHT22;5497;51.388;6.780;2022-08-01T06:37:57;22.90;99.90
10889;DHT22;5497;51.388;6.780;2022-08-01T06:40:24;23.30;99.90
10889;DHT22;5497;51.388;6.780;2022-08-01T06:42:52;24.90;99.90
10889;DHT22;5497;51.388;6.780;2022-08-01T06:45:19;25.10;99.90
10889;DHT22;5497;51.388;6.780;2022-08-01T06:47:47;26.70;99.90
10889;DHT22;5497;51.388;6.780;2022-08-01T06:50:14;28.20;99.90
10889;DHT22;5497;51.388;6.780;2022-08-01T06:52:41;29.70;99.90
10889;DHT22;5497;51.388;6.780;2022-08-01T06:55:08;29.70;99.90
10889;DHT22;5497;51.388;6.780;2022-08-01T06:57:35;30.20;99.90
10889;DHT22;5497;51.388;6.780;2022-08-01T07:00:04;30.00;99.90
10889;DHT22;5497;51.388;6.780;2022-08-01T07:02:32;29.80;99.90
10889;DHT22;5497;51.388;6.780;2022-08-01T07:04:59;29.50;99.90
10889;DHT22;5497;51.388;6.780;2022-08-01T07:07:26;29.10;99.90
10889;DHT22;5497;51.388;6.780;2022-08-01T07:09:53;28.80;99.90
10889;DHT22;5497;51.388;6.780;2022-08-01T07:12:19;28.50;99.90
10889;DHT22;5497;51.388;6.780;2022-08-01T07:14:47;28.20;99.90
10889;DHT22;5497;51.388;6.780;2022-08-01T07:17:15;28.00;99.90
10889;DHT22;5497;51.388;6.780;2022-08-01T07:19:42;27.90;99.90
10889;DHT22;5497;51.388;6.780;2022-08-01T07:22:09;27.80;99.90
10889;DHT22;5497;51.388;6.780;2022-08-01T07:24:36;27.70;99.90
10889;DHT22;5497;51.388;6.780;2022-08-01T07:27:03;27.80;99.90
10889;DHT22;5497;51.388;6.780;2022-08-01T07:29:30;28.10;99.90
10889;DHT22;5497;51.388;6.780;2022-08-01T07:31:57;28.40;99.90
10889;DHT22;5497;51.388;6.780;2022-08-01T07:34:25;28.70;99.90
10889;DHT22;5497;51.388;6.780;2022-08-01T07:36:53;28.90;99.90
10889;DHT22;5497;51.388;6.780;2022-08-01T07:39:19;28.90;99.90
10889;DHT22;5497;51.388;6.780;2022-08-01T07:41:46;28.90;99.90
10889;DHT22;5497;51.388;6.780;2022-08-01T07:46:42;28.30;99.90
10889;DHT22;5497;51.388;6.780;2022-08-01T07:49:09;28.00;99.90
10889;DHT22;5497;51.388;6.780;2022-08-01T07:51:38;27.90;99.90
10889;DHT22;5497;51.388;6.780;2022-08-01T07:54:05;27.90;99.90
10889;DHT22;5497;51.388;6.780;2022-08-01T07:56:33;28.30;99.90
10889;DHT22;5497;51.388;6.780;2022-08-01T07:58:59;29.10;99.90
10889;DHT22;5497;51.388;6.780;2022-08-01T08:01:26;30.00;99.90
10889;DHT22;5497;51.388;6.780;2022-08-01T08:03:53;30.90;99.90
10889;DHT22;5497;51.388;6.780;2022-08-01T08:06:20;31.90;99.90
10889;DHT22;5497;51.388;6.780;2022-08-01T08:08:48;32.80;99.90
10889;DHT22;5497;51.388;6.780;2022-08-01T08:11:15;33.60;99.90
10889;DHT22;5497;51.388;6.780;2022-08-01T08:13:42;34.20;99.90
10889;DHT22;5497;51.388;6.780;2022-08-01T08:16:08;34.60;99.90
10889;DHT22;5497;51.388;6.780;2022-08-01T08:18:35;35.00;99.90
10889;DHT22;5497;51.388;6.780;2022-08-01T08:21:03;34.90;99.90
10889;DHT22;5497;51.388;6.780;2022-08-01T08:23:30;34.70;99.90
10889;DHT22;5497;51.388;6.780;2022-08-01T08:26:15;34.10;99.90
10889;DHT22;5497;51.388;6.780;2022-08-01T08:28:42;33.40;99.90
10889;DHT22;5497;51.388;6.780;2022-08-01T08:31:09;32.70;99.90
10889;DHT22;5497;51.388;6.780;2022-08-01T08:33:36;31.70;99.90
10889;DHT22;5497;51.388;6.780;2022-08-01T08:36:03;31.40;99.90
10889;DHT22;5497;51.388;6.780;2022-08-01T08:38:30;31.20;99.90
10889;DHT22;5497;51.388;6.780;2022-08-01T08:40:57;31.40;99.90
10889;DHT22;5497;51.388;6.780;2022-08-01T08:43:25;31.40;99.90
10889;DHT22;5497;51.388;6.780;2022-08-01T08:45:53;31.20;99.90
10889;DHT22;5497;51.388;6.780;2022-08-01T08:48:20;31.10;99.90
10889;DHT22;5497;51.388;6.780;2022-08-01T08:50:47;30.90;99.90
10889;DHT22;5497;51.388;6.780;2022-08-01T08:53:14;30.80;99.90
10889;DHT22;5497;51.388;6.780;2022-08-01T08:55:42;30.80;99.90
10889;DHT22;5497;51.388;6.780;2022-08-01T08:58:09;30.60;99.90
10889;DHT22;5497;51.388;6.780;2022-08-01T09:00:39;30.20;99.90
10889;DHT22;5497;51.388;6.780;2022-08-01T09:03:06;29.70;99.90
10889;DHT22;5497;51.388;6.780;2022-08-01T09:05:32;29.50;99.90
10889;DHT22;5497;51.388;6.780;2022-08-01T09:07:59;29.60;99.90
10889;DHT22;5497;51.388;6.780;2022-08-01T09:10:26;29.80;99.90
10889;DHT22;5497;51.388;6.780;2022-08-01T09:13:03;29.50;99.90
10889;DHT22;5497;51.388;6.780;2022-08-01T09:15:38;29.10;99.90
10889;DHT22;5497;51.388;6.780;2022-08-01T09:18:05;28.50;99.90
10889;DHT22;5497;51.388;6.780;2022-08-01T09:20:32;28.40;99.90
10889;DHT22;5497;51.388;6.780;2022-08-01T09:23:01;28.60;99.90
10889;DHT22;5497;51.388;6.780;2022-08-01T09:25:28;28.80;99.90
10889;DHT22;5497;51.388;6.780;2022-08-01T09:28:01;28.80;99.90
10889;DHT22;5497;51.388;6.780;2022-08-01T09:30:29;28.80;99.90
10889;DHT22;5497;51.388;6.780;2022-08-01T09:33:04;28.70;99.90
10889;DHT22;5497;51.388;6.780;2022-08-01T09:35:31;28.50;99.90
10889;DHT22;5497;51.388;6.780;2022-08-01T09:38:16;28.40;99.90
10889;DHT22;5497;51.388;6.780;2022-08-01T09:40:47;28.50;99.90
10889;DHT22;5497;51.388;6.780;2022-08-01T09:43:17;29.00;99.90
10889;DHT22;5497;51.388;6.780;2022-08-01T09:45:44;29.60;99.90
10889;DHT22;5497;51.388;6.780;2022-08-01T09:48:12;30.20;99.90
10889;DHT22;5497;51.388;6.780;2022-08-01T09:50:41;30.80;99.90
10889;DHT22;5497;51.388;6.780;2022-08-01T09:53:08;31.30;99.90
10889;DHT22;5497;51.388;6.780;2022-08-01T09:55:36;31.50;99.90
10889;DHT22;5497;51.388;6.780;2022-08-01T09:58:03;31.40;99.90
10889;DHT22;5497;51.388;6.780;2022-08-01T10:00:30;31.20;99.90
10889;DHT22;5497;51.388;6.780;2022-08-01T10:02:58;30.90;99.90
10889;DHT22;5497;51.388;6.780;2022-08-01T10:05:33;30.50;99.90
10889;DHT22;5497;51.388;6.780;2022-08-01T10:08:01;30.20;99.90
10889;DHT22;5497;51.388;6.780;2022-08-01T10:10:28;29.40;99.90
10889;DHT22;5497;51.388;6.780;2022-08-01T10:12:55;29.30;99.90
10889;DHT22;5497;51.388;6.780;2022-08-01T10:15:22;29.20;99.90
10889;DHT22;5497;51.388;6.780;2022-08-01T10:17:51;29.10;99.90
10889;DHT22;5497;51.388;6.780;2022-08-01T10:20:20;28.90;99.90
10889;DHT22;5497;51.388;6.780;2022-08-01T10:22:48;28.80;99.90
10889;DHT22;5497;51.388;6.780;2022-08-01T10:25:16;28.50;99.90
10889;DHT22;5497;51.388;6.780;2022-08-01T10:27:44;28.20;99.90
10889;DHT22;5497;51.388;6.780;2022-08-01T10:30:12;28.20;99.90
10889;DHT22;5497;51.388;6.780;2022-08-01T10:32:39;28.30;99.90
10889;DHT22;5497;51.388;6.780;2022-08-01T10:35:08;28.30;99.90
10889;DHT22;5497;51.388;6.780;2022-08-01T10:37:39;28.50;99.90
10889;DHT22;5497;51.388;6.780;2022-08-01T10:40:08;28.70;99.90
10889;DHT22;5497;51.388;6.780;2022-08-01T10:42:35;28.70;99.90
10889;DHT22;5497;51.388;6.780;2022-08-01T10:45:03;28.70;99.90
10889;DHT22;5497;51.388;6.780;2022-08-01T10:47:32;28.50;99.90
10889;DHT22;5497;51.388;6.780;2022-08-01T10:50:04;28.40;99.90
10889;DHT22;5497;51.388;6.780;2022-08-01T10:52:33;28.30;99.90
10889;DHT22;5497;51.388;6.780;2022-08-01T10:55:03;28.30;99.90
10889;DHT22;5497;51.388;6.780;2022-08-01T10:57:42;28.50;99.90
10889;DHT22;5497;51.388;6.780;2022-08-01T11:00:10;28.70;99.90
10889;DHT22;5497;51.388;6.780;2022-08-01T11:02:42;28.70;99.90
10889;DHT22;5497;51.388;6.780;2022-08-01T11:05:23;28.70;99.90
10889;DHT22;5497;51.388;6.780;2022-08-01T11:07:51;28.60;99.90
10889;DHT22;5497;51.388;6.780;2022-08-01T11:10:21;28.50;99.90
10889;DHT22;5497;51.388;6.780;2022-08-01T11:12:50;28.40;99.90
10889;DHT22;5497;51.388;6.780;2022-08-01T11:15:22;28.40;99.90
10889;DHT22;5497;51.388;6.780;2022-08-01T11:17:53;28.50;99.90
10889;DHT22;5497;51.388;6.780;2022-08-01T11:20:20;28.60;99.90
10889;DHT22;5497;51.388;6.780;2022-08-01T11:28:19;28.20;99.90
10889;DHT22;5497;51.388;6.780;2022-08-01T11:30:47;28.20;99.90
10889;DHT22;5497;51.388;6.780;2022-08-01T11:33:14;28.20;99.90
10889;DHT22;5497;51.388;6.780;2022-08-01T11:38:23;28.50;99.90
10889;DHT22;5497;51.388;6.780;2022-08-01T11:43:36;28.80;99.90
10889;DHT22;5497;51.388;6.780;2022-08-01T11:51:47;29.30;99.90
10889;DHT22;5497;51.388;6.780;2022-08-01T11:54:14;29.50;99.90
10889;DHT22;5497;51.388;6.780;2022-08-01T11:56:41;29.60;99.90
10889;DHT22;5497;51.388;6.780;2022-08-01T11:59:09;29.60;99.90
10889;DHT22;5497;51.388;6.780;2022-08-01T12:01:36;29.60;99.90
10889;DHT22;5497;51.388;6.780;2022-08-01T12:04:03;29.60;99.90
10889;DHT22;5497;51.388;6.780;2022-08-01T12:06:29;29.60;99.90
10889;DHT22;5497;51.388;6.780;2022-08-01T12:08:57;29.50;99.90
10889;DHT22;5497;51.388;6.780;2022-08-01T12:11:40;29.60;99.90
10889;DHT22;5497;51.388;6.780;2022-08-01T12:14:07;29.90;99.90
10889;DHT22;5497;51.388;6.780;2022-08-01T12:16:35;30.20;99.90
10889;DHT22;5497;51.388;6.780;2022-08-01T12:19:02;30.60;99.90
10889;DHT22;5497;51.388;6.780;2022-08-01T12:21:29;30.80;99.90
10889;DHT22;5497;51.388;6.780;2022-08-01T12:24:01;30.70;99.90
10889;DHT22;5497;51.388;6.780;2022-08-01T12:26:38;30.80;99.90
10889;DHT22;5497;51.388;6.780;2022-08-01T12:29:05;30.80;99.90
10889;DHT22;5497;51.388;6.780;2022-08-01T12:31:32;30.80;99.90
10889;DHT22;5497;51.388;6.780;2022-08-01T12:34:03;30.70;99.90
10889;DHT22;5497;51.388;6.780;2022-08-01T12:36:50;30.70;99.90
10889;DHT22;5497;51.388;6.780;2022-08-01T12:39:17;30.50;99.90
10889;DHT22;5497;51.388;6.780;2022-08-01T12:41:44;30.60;99.80
10889;DHT22;5497;51.388;6.780;2022-08-01T12:44:12;30.50;99.90
10889;DHT22;5497;51.388;6.780;2022-08-01T12:46:40;30.50;99.90
10889;DHT22;5497;51.388;6.780;2022-08-01T12:49:08;30.20;99.90
10889;DHT22;5497;51.388;6.780;2022-08-01T12:51:35;30.00;99.90
10889;DHT22;5497;51.388;6.780;2022-08-01T12:54:01;29.70;99.90
10889;DHT22;5497;51.388;6.780;2022-08-01T12:56:33;29.60;99.90
10889;DHT22;5497;51.388;6.780;2022-08-01T12:58:59;29.70;99.90
10889;DHT22;5497;51.388;6.780;2022-08-01T13:01:27;29.90;99.90
10889;DHT22;5497;51.388;6.780;2022-08-01T13:03:57;30.00;99.90
10889;DHT22;5497;51.388;6.780;2022-08-01T13:06:27;30.00;99.90
10889;DHT22;5497;51.388;6.780;2022-08-01T13:09:02;30.10;99.90
10889;DHT22;5497;51.388;6.780;2022-08-01T13:11:30;30.20;99.90
10889;DHT22;5497;51.388;6.780;2022-08-01T13:13:57;30.40;99.90
10889;DHT22;5497;51.388;6.780;2022-08-01T13:16:24;30.60;99.90
10889;DHT22;5497;51.388;6.780;2022-08-01T13:18:51;30.90;99.90
10889;DHT22;5497;51.388;6.780;2022-08-01T13:21:19;31.00;99.90
10889;DHT22;5497;51.388;6.780;2022-08-01T13:24:01;30.80;99.90
10889;DHT22;5497;51.388;6.780;2022-08-01T13:26:37;30.80;99.90
10889;DHT22;5497;51.388;6.780;2022-08-01T13:29:04;30.70;99.60
10889;DHT22;5497;51.388;6.780;2022-08-01T13:31:32;30.60;99.70
10889;DHT22;5497;51.388;6.780;2022-08-01T13:33:59;30.10;99.90
10889;DHT22;5497;51.388;6.780;2022-08-01T13:36:26;29.90;99.90
10889;DHT22;5497;51.388;6.780;2022-08-01T13:38:53;29.60;99.90
10889;DHT22;5497;51.388;6.780;2022-08-01T13:41:40;29.40;99.90
10889;DHT22;5497;51.388;6.780;2022-08-01T13:44:06;29.10;99.90
10889;DHT22;5497;51.388;6.780;2022-08-01T13:46:35;28.90;99.90
10889;DHT22;5497;51.388;6.780;2022-08-01T13:49:02;28.90;99.90
10889;DHT22;5497;51.388;6.780;2022-08-01T13:51:29;28.90;99.90
10889;DHT22;5497;51.388;6.780;2022-08-01T13:53:56;28.90;99.90
10889;DHT22;5497;51.388;6.780;2022-08-01T13:56:23;29.00;99.90
10889;DHT22;5497;51.388;6.780;2022-08-01T13:58:51;29.10;99.90
10889;DHT22;5497;51.388;6.780;2022-08-01T14:01:18;29.20;99.90
10889;DHT22;5497;51.388;6.780;2022-08-01T14:03:44;29.30;99.90
10889;DHT22;5497;51.388;6.780;2022-08-01T14:06:11;29.20;99.90
10889;DHT22;5497;51.388;6.780;2022-08-01T14:08:39;28.80;99.90
10889;DHT22;5497;51.388;6.780;2022-08-01T14:11:06;28.20;99.90
10889;DHT22;5497;51.388;6.780;2022-08-01T14:13:32;28.30;99.90
10889;DHT22;5497;51.388;6.780;2022-08-01T14:16:00;28.00;99.90
10889;DHT22;5497;51.388;6.780;2022-08-01T14:18:27;27.80;99.90
10889;DHT22;5497;51.388;6.780;2022-08-01T14:20:54;27.70;99.90
10889;DHT22;5497;51.388;6.780;2022-08-01T14:23:20;27.80;99.90
10889;DHT22;5497;51.388;6.780;2022-08-01T14:25:47;27.90;99.90
10889;DHT22;5497;51.388;6.780;2022-08-01T14:28:14;28.20;99.90
10889;DHT22;5497;51.388;6.780;2022-08-01T14:30:41;28.20;99.90
10889;DHT22;5497;51.388;6.780;2022-08-01T14:33:10;28.30;99.90
10889;DHT22;5497;51.388;6.780;2022-08-01T14:35:36;28.60;99.90
10889;DHT22;5497;51.388;6.780;2022-08-01T14:38:03;28.90;99.90
10889;DHT22;5497;51.388;6.780;2022-08-01T14:40:30;29.20;99.90
10889;DHT22;5497;51.388;6.780;2022-08-01T14:42:57;29.40;99.90
10889;DHT22;5497;51.388;6.780;2022-08-01T14:45:24;29.30;99.90
10889;DHT22;5497;51.388;6.780;2022-08-01T14:47:50;29.20;99.90
10889;DHT22;5497;51.388;6.780;2022-08-01T14:50:18;29.30;99.90
10889;DHT22;5497;51.388;6.780;2022-08-01T14:52:45;29.40;99.90
10889;DHT22;5497;51.388;6.780;2022-08-01T14:55:12;29.50;99.90
10889;DHT22;5497;51.388;6.780;2022-08-01T14:57:39;29.60;99.90
10889;DHT22;5497;51.388;6.780;2022-08-01T15:00:06;29.70;99.90
10889;DHT22;5497;51.388;6.780;2022-08-01T15:02:35;29.80;99.90
10889;DHT22;5497;51.388;6.780;2022-08-01T15:05:02;29.90;99.90
10889;DHT22;5497;51.388;6.780;2022-08-01T15:07:30;30.00;99.90
10889;DHT22;5497;51.388;6.780;2022-08-01T15:09:57;30.00;99.90
10889;DHT22;5497;51.388;6.780;2022-08-01T15:12:24;29.80;99.80
10889;DHT22;5497;51.388;6.780;2022-08-01T15:14:51;29.60;99.90
10889;DHT22;5497;51.388;6.780;2022-08-01T15:17:19;29.60;99.90
10889;DHT22;5497;51.388;6.780;2022-08-01T15:19:47;29.70;99.90
10889;DHT22;5497;51.388;6.780;2022-08-01T15:22:13;29.60;99.70
10889;DHT22;5497;51.388;6.780;2022-08-01T15:24:42;29.40;99.60
10889;DHT22;5497;51.388;6.780;2022-08-01T15:27:09;29.20;99.90
10889;DHT22;5497;51.388;6.780;2022-08-01T15:29:36;29.10;99.90
10889;DHT22;5497;51.388;6.780;2022-08-01T15:32:04;29.10;99.90
10889;DHT22;5497;51.388;6.780;2022-08-01T15:34:31;28.90;99.60
10889;DHT22;5497;51.388;6.780;2022-08-01T15:36:58;28.80;99.50
10889;DHT22;5497;51.388;6.780;2022-08-01T15:39:25;28.50;99.80
10889;DHT22;5497;51.388;6.780;2022-08-01T15:41:53;28.40;99.70
10889;DHT22;5497;51.388;6.780;2022-08-01T15:44:20;28.30;99.90
10889;DHT22;5497;51.388;6.780;2022-08-01T15:46:47;28.40;99.90
10889;DHT22;5497;51.388;6.780;2022-08-01T15:49:14;28.60;99.90
10889;DHT22;5497;51.388;6.780;2022-08-01T15:51:40;28.70;99.90
10889;DHT22;5497;51.388;6.780;2022-08-01T15:54:07;28.70;99.90
10889;DHT22;5497;51.388;6.780;2022-08-01T15:56:34;28.80;99.50
10889;DHT22;5497;51.388;6.780;2022-08-01T15:59:03;28.80;99.70
10889;DHT22;5497;51.388;6.780;2022-08-01T16:01:30;28.80;99.50
10889;DHT22;5497;51.388;6.780;2022-08-01T16:03:57;28.60;99.00
10889;DHT22;5497;51.388;6.780;2022-08-01T16:06:24;28.40;99.40
10889;DHT22;5497;51.388;6.780;2022-08-01T16:08:51;28.20;99.60
10889;DHT22;5497;51.388;6.780;2022-08-01T16:11:18;28.00;99.30
10889;DHT22;5497;51.388;6.780;2022-08-01T16:13:44;27.80;99.00
10889;DHT22;5497;51.388;6.780;2022-08-01T16:16:14;27.50;99.40
10889;DHT22;5497;51.388;6.780;2022-08-01T16:18:41;27.30;99.60
10889;DHT22;5497;51.388;6.780;2022-08-01T16:21:08;27.20;99.90
10889;DHT22;5497;51.388;6.780;2022-08-01T16:23:36;27.10;99.90
10889;DHT22;5497;51.388;6.780;2022-08-01T16:26:02;27.20;99.90